createdAt,value
2017-11-23T00:01:00.512Z,2.40
2017-11-23T00:03:31.293Z,2.40
2017-11-23T00:06:02.094Z,2.57
2017-11-23T00:08:32.893Z,2.37
2017-11-23T00:11:03.661Z,2.40
2017-11-23T00:13:34.430Z,2.57
2017-11-23T00:16:05.225Z,2.50
2017-11-23T00:18:36.001Z,2.17
2017-11-23T00:21:06.763Z,2.50
2017-11-23T00:23:37.534Z,2.63
2017-11-23T00:26:08.346Z,2.53
2017-11-23T00:28:39.103Z,2.30
2017-11-23T00:31:09.877Z,2.50
2017-11-23T00:33:40.642Z,2.43
2017-11-23T00:36:11.444Z,2.30
2017-11-23T00:38:42.206Z,2.40
2017-11-23T00:41:12.960Z,2.33
2017-11-23T00:43:43.746Z,2.50
2017-11-23T00:46:14.517Z,2.40
2017-11-23T00:48:45.289Z,2.30
2017-11-23T00:51:16.042Z,2.40
2017-11-23T00:53:46.802Z,2.50
2017-11-23T00:56:17.579Z,2.60
2017-11-23T00:58:48.328Z,2.43
2017-11-23T01:01:19.089Z,2.33
2017-11-23T01:03:49.877Z,2.10
2017-11-23T01:06:20.611Z,2.17
2017-11-23T01:08:51.390Z,2.37
2017-11-23T01:11:22.186Z,2.20
2017-11-23T01:13:52.929Z,2.40
2017-11-23T01:16:23.706Z,2.00
2017-11-23T01:18:54.459Z,2.30
2017-11-23T01:21:25.241Z,2.57
2017-11-23T01:23:55.994Z,2.20
2017-11-23T01:26:26.794Z,2.30
2017-11-23T01:28:57.534Z,2.40
2017-11-23T01:31:28.313Z,2.40
2017-11-23T01:33:59.080Z,2.37
2017-11-23T01:36:29.861Z,2.27
2017-11-23T01:39:00.632Z,2.30
2017-11-23T01:41:31.384Z,2.30
2017-11-23T01:44:02.149Z,2.47
2017-11-23T01:46:32.925Z,2.30
2017-11-23T01:49:03.687Z,2.50
2017-11-23T01:51:34.429Z,2.10
2017-11-23T01:54:05.215Z,2.43
2017-11-23T01:56:35.968Z,2.33
2017-11-23T01:59:06.746Z,2.27
2017-11-23T02:01:37.485Z,2.20
2017-11-23T02:04:08.337Z,2.37
2017-11-23T02:06:39.125Z,2.40
2017-11-23T02:09:09.877Z,2.30
2017-11-23T02:11:41.461Z,1.90
2017-11-23T02:14:12.219Z,2.00
2017-11-23T02:16:42.980Z,2.30
2017-11-23T02:19:13.773Z,2.50
2017-11-23T02:21:44.546Z,2.37
2017-11-23T02:24:15.294Z,2.40
2017-11-23T02:26:46.072Z,2.33
2017-11-23T02:29:16.810Z,2.40
2017-11-23T02:31:47.587Z,2.27
2017-11-23T02:34:18.365Z,2.30
2017-11-23T02:36:49.125Z,2.07
2017-11-23T02:39:19.907Z,2.20
2017-11-23T02:41:50.696Z,2.30
2017-11-23T02:44:21.458Z,2.30
2017-11-23T02:46:52.202Z,2.30
2017-11-23T02:49:22.986Z,2.50
2017-11-23T02:51:53.762Z,2.80
2017-11-23T02:54:24.521Z,2.40
2017-11-23T02:56:55.277Z,2.37
2017-11-23T02:59:26.038Z,2.23
2017-11-23T03:01:56.808Z,2.30
2017-11-23T03:04:27.566Z,2.23
2017-11-23T03:06:58.337Z,2.30
2017-11-23T03:09:29.082Z,2.17
2017-11-23T03:11:59.858Z,2.27
2017-11-23T03:14:30.610Z,2.40
2017-11-23T03:17:01.373Z,2.37
2017-11-23T03:19:32.150Z,2.30
2017-11-23T03:22:02.916Z,2.37
2017-11-23T03:24:33.681Z,2.23
2017-11-23T03:27:04.437Z,2.20
2017-11-23T03:29:35.230Z,2.30
2017-11-23T03:32:05.995Z,2.50
2017-11-23T03:34:36.781Z,2.50
2017-11-23T03:37:07.526Z,2.43
2017-11-23T03:39:38.295Z,2.70
2017-11-23T03:42:09.087Z,2.30
2017-11-23T03:44:39.841Z,2.20
2017-11-23T03:47:10.623Z,2.20
2017-11-23T03:49:41.381Z,2.30
2017-11-23T03:52:12.134Z,2.30
2017-11-23T03:54:42.897Z,2.20
2017-11-23T03:57:13.786Z,2.63
2017-11-23T03:59:44.545Z,2.20
2017-11-23T04:02:15.318Z,2.20
2017-11-23T04:04:46.075Z,2.10
2017-11-23T04:07:16.846Z,2.33
2017-11-23T04:09:47.625Z,2.17
2017-11-23T04:12:18.377Z,2.20
2017-11-23T04:14:49.149Z,2.23
2017-11-23T04:17:19.897Z,2.30
2017-11-23T04:19:50.686Z,2.20
2017-11-23T04:22:21.410Z,2.43
2017-11-23T04:24:52.186Z,2.40
2017-11-23T04:27:22.959Z,2.40
2017-11-23T04:29:53.717Z,2.10
2017-11-23T04:32:24.497Z,2.50
2017-11-23T04:34:55.241Z,2.50
2017-11-23T04:37:26.013Z,3.10
2017-11-23T04:39:56.786Z,3.20
2017-11-23T04:42:27.549Z,2.67
2017-11-23T04:44:58.327Z,2.50
2017-11-23T04:47:29.068Z,2.40
2017-11-23T04:49:59.868Z,2.53
2017-11-23T04:52:30.621Z,2.40
2017-11-23T04:55:01.414Z,2.40
2017-11-23T04:57:32.174Z,2.60
2017-11-23T05:00:02.954Z,2.60
2017-11-23T05:02:33.767Z,2.40
2017-11-23T05:05:04.529Z,2.60
2017-11-23T05:07:35.325Z,2.20
2017-11-23T05:10:06.107Z,2.40
2017-11-23T05:12:36.870Z,2.30
2017-11-23T05:15:07.623Z,2.50
2017-11-23T05:17:38.390Z,2.50
2017-11-23T05:20:09.162Z,2.77
2017-11-23T05:22:39.921Z,2.50
2017-11-23T05:25:10.679Z,2.70
2017-11-23T05:27:41.430Z,2.53
2017-11-23T05:30:12.209Z,2.50
2017-11-23T05:32:42.993Z,2.50
2017-11-23T05:35:13.762Z,2.60
2017-11-23T05:37:44.541Z,2.57
2017-11-23T05:40:15.309Z,2.63
2017-11-23T05:42:46.073Z,2.60
2017-11-23T05:45:16.830Z,2.70
2017-11-23T05:47:47.597Z,2.60
2017-11-23T05:50:18.384Z,2.60
2017-11-23T05:52:49.195Z,2.70
2017-11-23T05:55:19.925Z,2.70
2017-11-23T05:57:50.688Z,3.10
2017-11-23T06:00:21.445Z,2.70
2017-11-23T06:02:52.205Z,2.67
2017-11-23T06:05:22.985Z,2.50
2017-11-23T06:07:53.732Z,2.60
2017-11-23T06:10:24.504Z,2.47
2017-11-23T06:12:55.269Z,2.70
2017-11-23T06:15:26.054Z,2.90
2017-11-23T06:17:56.834Z,2.70
2017-11-23T06:20:27.594Z,2.80
2017-11-23T06:22:58.342Z,2.90
2017-11-23T06:25:29.113Z,2.70
2017-11-23T06:27:59.886Z,2.80
2017-11-23T06:30:30.665Z,2.70
2017-11-23T06:33:01.430Z,2.83
2017-11-23T06:35:32.197Z,2.80
2017-11-23T06:38:02.961Z,2.90
2017-11-23T06:40:33.757Z,2.87
2017-11-23T06:43:04.547Z,2.93
2017-11-23T06:45:35.297Z,2.90
2017-11-23T06:48:06.066Z,2.70
2017-11-23T06:50:36.849Z,2.67
2017-11-23T06:53:07.653Z,3.00
2017-11-23T06:55:38.413Z,2.80
2017-11-23T06:58:09.184Z,3.07
2017-11-23T07:00:39.958Z,2.73
2017-11-23T07:03:10.720Z,2.90
2017-11-23T07:05:41.474Z,2.80
2017-11-23T07:08:12.219Z,2.67
2017-11-23T07:10:42.981Z,2.80
2017-11-23T07:13:13.742Z,2.57
2017-11-23T07:15:44.531Z,2.90
2017-11-23T07:18:15.288Z,2.60
2017-11-23T07:20:46.059Z,2.80
2017-11-23T07:23:16.849Z,2.67
2017-11-23T07:25:47.597Z,2.60
2017-11-23T07:28:18.356Z,2.67
2017-11-23T07:30:49.116Z,2.73
2017-11-23T07:33:19.877Z,2.80
2017-11-23T07:35:50.641Z,2.80
2017-11-23T07:38:21.420Z,2.73
2017-11-23T07:40:52.178Z,2.40
2017-11-23T07:43:22.933Z,2.67
2017-11-23T07:45:53.730Z,3.10
2017-11-23T07:48:24.473Z,2.50
2017-11-23T07:50:55.254Z,2.60
2017-11-23T07:53:26.017Z,2.70
2017-11-23T07:55:56.783Z,2.70
2017-11-23T07:58:27.550Z,2.70
2017-11-23T08:00:58.305Z,2.50
2017-11-23T08:03:29.073Z,2.70
2017-11-23T08:05:59.826Z,2.70
2017-11-23T08:08:30.615Z,2.67
2017-11-23T08:11:01.356Z,3.07
2017-11-23T08:13:32.123Z,2.70
2017-11-23T08:16:02.898Z,2.80
2017-11-23T08:18:33.654Z,2.80
2017-11-23T08:21:04.425Z,2.57
2017-11-23T08:23:35.165Z,2.70
2017-11-23T08:26:05.938Z,3.00
2017-11-23T08:28:36.709Z,2.70
2017-11-23T08:31:07.469Z,2.90
2017-11-23T08:33:38.225Z,2.80
2017-11-23T08:36:08.978Z,2.70
2017-11-23T08:38:39.758Z,2.70
2017-11-23T08:41:10.497Z,2.77
2017-11-23T08:43:41.399Z,2.90
2017-11-23T08:46:12.147Z,2.63
2017-11-23T08:48:42.932Z,2.60
2017-11-23T08:51:13.698Z,2.90
2017-11-23T08:53:44.442Z,2.80
2017-11-23T08:56:15.230Z,2.70
2017-11-23T08:58:45.990Z,2.70
2017-11-23T09:01:16.759Z,2.80
2017-11-23T09:03:47.529Z,2.70
2017-11-23T09:06:18.370Z,2.83
2017-11-23T09:08:49.134Z,2.70
2017-11-23T09:11:19.886Z,2.87
2017-11-23T09:13:50.662Z,2.67
2017-11-23T09:16:21.444Z,2.63
2017-11-23T09:18:52.229Z,2.93
2017-11-23T09:21:22.997Z,2.60
2017-11-23T09:23:53.765Z,2.60
2017-11-23T09:26:24.530Z,2.60
2017-11-23T09:28:55.316Z,2.67
2017-11-23T09:31:26.054Z,2.80
2017-11-23T09:33:56.841Z,2.70
2017-11-23T09:36:27.617Z,2.87
2017-11-23T09:38:58.410Z,2.67
2017-11-23T09:41:29.244Z,2.70
2017-11-23T09:43:59.999Z,2.80
2017-11-23T09:46:30.756Z,2.60
2017-11-23T09:49:01.510Z,2.87
2017-11-23T09:51:32.279Z,2.50
2017-11-23T09:54:03.066Z,2.80
2017-11-23T09:56:33.834Z,2.43
2017-11-23T09:59:04.582Z,2.80
2017-11-23T10:01:35.354Z,2.70
2017-11-23T10:04:06.114Z,2.73
2017-11-23T10:06:36.881Z,2.60
2017-11-23T10:09:07.649Z,2.63
2017-11-23T10:11:38.406Z,2.60
2017-11-23T10:14:09.166Z,2.70
2017-11-23T10:16:39.933Z,2.60
2017-11-23T10:19:10.699Z,2.40
2017-11-23T10:21:41.458Z,2.50
2017-11-23T10:24:12.217Z,2.80
2017-11-23T10:26:43.022Z,2.80
2017-11-23T10:29:13.765Z,2.63
2017-11-23T10:31:44.530Z,2.90
2017-11-23T10:34:15.289Z,2.50
2017-11-23T10:36:46.060Z,2.83
2017-11-23T10:39:16.825Z,2.60
2017-11-23T10:41:47.582Z,2.50
2017-11-23T10:44:18.345Z,2.80
2017-11-23T10:46:49.133Z,2.67
2017-11-23T10:49:19.907Z,2.73
2017-11-23T10:51:50.673Z,2.77
2017-11-23T10:54:21.435Z,2.77
2017-11-23T10:56:52.198Z,2.90
2017-11-23T10:59:22.943Z,2.67
2017-11-23T11:01:53.714Z,2.60
2017-11-23T11:04:24.472Z,2.73
2017-11-23T11:06:55.229Z,2.97
2017-11-23T11:09:25.989Z,2.70
2017-11-23T11:11:56.750Z,2.73
2017-11-23T11:14:27.522Z,2.93
2017-11-23T11:16:58.290Z,2.77
2017-11-23T11:19:29.057Z,3.00
2017-11-23T11:21:59.945Z,2.70
2017-11-23T11:24:30.734Z,2.67
2017-11-23T11:27:01.474Z,2.73
2017-11-23T11:29:32.233Z,2.97
2017-11-23T11:32:02.986Z,3.00
2017-11-23T11:34:33.753Z,2.90
2017-11-23T11:37:04.650Z,3.00
2017-11-23T11:39:35.419Z,2.90
2017-11-23T11:42:06.209Z,3.03
2017-11-23T11:44:36.974Z,2.70
2017-11-23T11:47:07.775Z,2.67
2017-11-23T11:49:38.536Z,2.87
2017-11-23T11:52:09.297Z,2.60
2017-11-23T11:54:40.082Z,3.00
2017-11-23T11:57:10.878Z,2.70
2017-11-23T11:59:41.657Z,2.93
2017-11-23T12:02:12.429Z,3.00
2017-11-23T12:04:43.197Z,2.97
2017-11-23T12:07:13.938Z,2.80
2017-11-23T12:09:44.730Z,3.10
2017-11-23T12:12:15.499Z,2.80
2017-11-23T12:14:46.250Z,2.77
2017-11-23T12:17:17.022Z,2.70
2017-11-23T12:19:47.785Z,2.70
2017-11-23T12:22:18.532Z,2.97
2017-11-23T12:24:49.314Z,2.80
2017-11-23T12:27:20.065Z,2.90
2017-11-23T12:29:50.838Z,2.67
2017-11-23T12:32:21.609Z,2.73
2017-11-23T12:34:52.393Z,3.00
2017-11-23T12:37:23.160Z,3.00
2017-11-23T12:39:53.933Z,2.60
2017-11-23T12:42:24.693Z,2.77
2017-11-23T12:44:55.468Z,2.80
2017-11-23T12:47:26.230Z,2.80
2017-11-23T12:49:57.000Z,2.57
2017-11-23T12:52:27.762Z,2.70
2017-11-23T12:54:58.546Z,2.90
2017-11-23T12:57:29.301Z,2.67
2017-11-23T13:00:00.078Z,2.80
2017-11-23T13:02:30.833Z,2.70
2017-11-23T13:05:01.593Z,2.90
2017-11-23T13:07:32.400Z,2.70
2017-11-23T13:10:03.147Z,2.77
2017-11-23T13:12:33.938Z,2.63
2017-11-23T13:15:04.690Z,2.80
2017-11-23T13:17:35.481Z,2.70
2017-11-23T13:20:06.232Z,2.80
2017-11-23T13:22:37.009Z,2.80
2017-11-23T13:25:07.787Z,2.83
2017-11-23T13:27:38.551Z,2.60
2017-11-23T13:30:09.313Z,2.80
2017-11-23T13:32:40.097Z,2.63
2017-11-23T13:35:10.877Z,2.70
2017-11-23T13:37:41.691Z,2.60
2017-11-23T13:40:12.430Z,2.50
2017-11-23T13:42:43.231Z,2.47
2017-11-23T13:45:13.961Z,2.40
2017-11-23T13:47:44.747Z,2.90
2017-11-23T13:50:15.553Z,2.67
2017-11-23T13:52:46.419Z,2.33
2017-11-23T13:55:17.177Z,2.53
2017-11-23T13:57:47.974Z,2.30
2017-11-23T14:00:18.726Z,2.60
2017-11-23T14:02:49.508Z,2.73
2017-11-23T14:05:20.285Z,2.60
2017-11-23T14:07:51.041Z,2.53
2017-11-23T14:10:21.804Z,2.50
2017-11-23T14:12:52.570Z,2.57
2017-11-23T14:15:23.328Z,2.50
2017-11-23T14:17:54.087Z,2.70
2017-11-23T14:20:24.878Z,2.70
2017-11-23T14:22:55.633Z,2.60
2017-11-23T14:25:26.408Z,2.50
2017-11-23T14:27:57.210Z,2.67
2017-11-23T14:30:27.981Z,2.50
2017-11-23T14:32:58.747Z,2.70
2017-11-23T14:35:29.499Z,2.73
2017-11-23T14:38:00.309Z,2.70
2017-11-23T14:40:31.058Z,2.53
2017-11-23T14:43:01.822Z,2.57
2017-11-23T14:45:32.596Z,2.53
2017-11-23T14:48:03.369Z,2.70
2017-11-23T14:50:34.137Z,2.50
2017-11-23T14:53:04.930Z,2.73
2017-11-23T14:55:35.679Z,2.50
2017-11-23T14:58:06.468Z,2.60
2017-11-23T15:00:37.227Z,2.60
2017-11-23T15:03:07.998Z,2.67
2017-11-23T15:05:38.778Z,2.60
2017-11-23T15:08:09.535Z,2.93
2017-11-23T15:10:40.357Z,2.63
2017-11-23T15:13:11.094Z,2.53
2017-11-23T15:15:41.880Z,2.70
2017-11-23T15:18:12.667Z,2.40
2017-11-23T15:20:43.429Z,2.43
2017-11-23T15:23:14.209Z,2.70
2017-11-23T15:25:44.970Z,2.90
2017-11-23T15:28:15.741Z,2.67
2017-11-23T15:30:46.508Z,3.03
2017-11-23T15:33:17.277Z,2.90
2017-11-23T15:35:48.037Z,2.60
2017-11-23T15:38:18.829Z,2.60
2017-11-23T15:40:49.978Z,2.60
2017-11-23T15:43:20.755Z,2.43
2017-11-23T15:45:51.533Z,2.50
2017-11-23T15:48:22.302Z,2.70
2017-11-23T15:50:53.073Z,2.50
2017-11-23T15:53:23.838Z,2.50
2017-11-23T15:55:54.626Z,2.50
2017-11-23T15:58:25.410Z,2.67
2017-11-23T16:00:56.151Z,2.93
2017-11-23T16:03:26.914Z,2.50
2017-11-23T16:05:58.025Z,2.50
2017-11-23T16:08:28.798Z,2.60
2017-11-23T16:10:59.571Z,2.50
2017-11-23T16:13:30.370Z,2.40
2017-11-23T16:16:01.132Z,2.53
2017-11-23T16:18:32.761Z,2.90
2017-11-23T16:21:03.550Z,2.60
2017-11-23T16:23:34.339Z,2.47
2017-11-23T16:26:05.095Z,2.57
2017-11-23T16:28:35.860Z,2.80
2017-11-23T16:31:06.631Z,2.90
2017-11-23T16:33:37.405Z,2.77
2017-11-23T16:36:08.193Z,3.03
2017-11-23T16:38:38.989Z,2.70
2017-11-23T16:41:09.742Z,2.80
2017-11-23T16:43:40.509Z,2.87
2017-11-23T16:46:11.258Z,2.80
2017-11-23T16:48:42.071Z,2.80
2017-11-23T16:51:12.857Z,2.93
2017-11-23T16:53:43.612Z,2.73
2017-11-23T16:56:14.381Z,2.73
2017-11-23T16:58:45.158Z,2.87
2017-11-23T17:01:15.956Z,2.70
2017-11-23T17:03:46.730Z,2.93
2017-11-23T17:06:17.489Z,3.00
2017-11-23T17:08:48.277Z,2.70
2017-11-23T17:11:19.048Z,2.73
2017-11-23T17:13:49.830Z,2.33
2017-11-23T17:16:20.598Z,2.80
2017-11-23T17:18:51.375Z,2.80
2017-11-23T17:21:22.148Z,2.80
2017-11-23T17:23:52.932Z,2.73
2017-11-23T17:26:23.681Z,2.80
2017-11-23T17:28:54.451Z,2.90
2017-11-23T17:31:25.260Z,2.77
2017-11-23T17:33:56.038Z,2.70
2017-11-23T17:36:26.825Z,3.20
2017-11-23T17:38:57.585Z,2.60
2017-11-23T17:41:28.337Z,3.17
2017-11-23T17:43:59.120Z,2.90
2017-11-23T17:46:29.950Z,2.67
2017-11-23T17:49:00.730Z,3.20
2017-11-23T17:51:31.477Z,2.93
2017-11-23T17:54:02.253Z,2.83
2017-11-23T17:56:32.998Z,3.00
2017-11-23T17:59:03.772Z,3.20
2017-11-23T18:01:34.562Z,2.70
2017-11-23T18:04:05.341Z,2.90
2017-11-23T18:06:36.114Z,2.80
2017-11-23T18:09:06.889Z,2.97
2017-11-23T18:11:37.658Z,3.00
2017-11-23T18:14:08.470Z,2.50
2017-11-23T18:16:39.279Z,2.90
2017-11-23T18:19:10.050Z,2.87
2017-11-23T18:21:40.826Z,3.00
2017-11-23T18:24:11.582Z,3.23
2017-11-23T18:26:42.354Z,2.90
2017-11-23T18:29:13.129Z,2.90
2017-11-23T18:31:43.898Z,2.90
2017-11-23T18:34:14.693Z,2.73
2017-11-23T18:36:45.446Z,2.60
2017-11-23T18:39:16.228Z,2.77
2017-11-23T18:41:47.007Z,2.80
2017-11-23T18:44:17.785Z,2.97
2017-11-23T18:46:48.526Z,2.90
2017-11-23T18:49:19.406Z,3.00
2017-11-23T18:51:50.141Z,2.87
2017-11-23T18:54:20.913Z,2.90
2017-11-23T18:56:51.737Z,2.70
2017-11-23T18:59:22.533Z,2.83
2017-11-23T19:01:53.314Z,3.17
2017-11-23T19:04:24.083Z,3.20
2017-11-23T19:06:54.893Z,3.03
2017-11-23T19:09:25.650Z,2.77
2017-11-23T19:11:56.463Z,3.10
2017-11-23T19:14:27.257Z,2.90
2017-11-23T19:16:58.047Z,3.10
2017-11-23T19:19:28.818Z,3.00
2017-11-23T19:21:59.578Z,3.03
2017-11-23T19:24:30.400Z,2.90
2017-11-23T19:27:01.179Z,3.30
2017-11-23T19:29:31.965Z,2.77
2017-11-23T19:32:02.750Z,3.27
2017-11-23T19:34:33.527Z,3.10
2017-11-23T19:37:04.306Z,2.90
2017-11-23T19:39:35.078Z,3.10
2017-11-23T19:42:05.820Z,3.10
2017-11-23T19:44:36.584Z,3.03
2017-11-23T19:47:07.351Z,3.20
2017-11-23T19:49:38.630Z,3.23
2017-11-23T19:52:09.394Z,3.00
2017-11-23T19:54:40.177Z,3.10
2017-11-23T19:57:10.938Z,3.10
2017-11-23T19:59:41.709Z,2.80
2017-11-23T20:02:12.486Z,3.13
2017-11-23T20:04:43.257Z,3.10
2017-11-23T20:07:14.026Z,3.30
2017-11-23T20:09:44.810Z,2.90
2017-11-23T20:12:15.592Z,3.10
2017-11-23T20:14:46.397Z,3.00
2017-11-23T20:17:17.165Z,3.13
2017-11-23T20:19:47.922Z,3.10
2017-11-23T20:22:18.697Z,3.30
2017-11-23T20:24:49.494Z,3.00
2017-11-23T20:27:20.253Z,3.20
2017-11-23T20:29:51.046Z,2.97
2017-11-23T20:32:21.787Z,3.00
2017-11-23T20:34:52.587Z,3.13
2017-11-23T20:37:23.349Z,3.10
2017-11-23T20:39:54.153Z,3.10
2017-11-23T20:42:24.937Z,3.20
2017-11-23T20:44:55.739Z,2.97
2017-11-23T20:47:26.507Z,2.90
2017-11-23T20:49:57.276Z,3.00
2017-11-23T20:52:28.068Z,2.90
2017-11-23T20:54:58.854Z,3.20
2017-11-23T20:57:29.627Z,3.00
2017-11-23T21:00:00.390Z,3.20
2017-11-23T21:02:31.185Z,2.73
2017-11-23T21:05:01.951Z,3.00
2017-11-23T21:07:32.710Z,3.00
2017-11-23T21:10:03.498Z,3.33
2017-11-23T21:12:34.549Z,3.10
2017-11-23T21:15:05.358Z,2.97
2017-11-23T21:17:36.133Z,3.00
2017-11-23T21:20:06.916Z,3.10
2017-11-23T21:22:37.706Z,3.27
2017-11-23T21:25:09.055Z,3.00
2017-11-23T21:27:39.831Z,3.00
2017-11-23T21:30:10.607Z,3.10
2017-11-23T21:32:41.428Z,3.10
2017-11-23T21:35:12.206Z,3.00
2017-11-23T21:37:42.959Z,3.20
2017-11-23T21:40:13.741Z,2.90
2017-11-23T21:42:44.520Z,3.23
2017-11-23T21:45:15.297Z,3.20
2017-11-23T21:47:46.079Z,3.10
2017-11-23T21:50:16.841Z,3.10
2017-11-23T21:52:47.622Z,2.90
2017-11-23T21:55:18.367Z,2.90
2017-11-23T21:57:49.151Z,3.00
2017-11-23T22:00:19.932Z,3.00
2017-11-23T22:02:50.693Z,2.90
2017-11-23T22:05:21.513Z,3.00
2017-11-23T22:07:52.261Z,3.13
2017-11-23T22:10:23.030Z,2.80
2017-11-23T22:12:53.786Z,2.97
2017-11-23T22:15:24.567Z,3.07
2017-11-23T22:17:55.339Z,3.10
2017-11-23T22:20:26.112Z,2.90
2017-11-23T22:22:56.883Z,3.17
2017-11-23T22:25:27.669Z,3.23
2017-11-23T22:27:58.440Z,3.20
2017-11-23T22:30:29.223Z,3.10
2017-11-23T22:32:59.954Z,3.00
2017-11-23T22:35:30.752Z,3.00
2017-11-23T22:38:01.517Z,3.00
2017-11-23T22:40:32.290Z,3.03
2017-11-23T22:43:03.038Z,2.70
2017-11-23T22:45:33.851Z,3.10
2017-11-23T22:48:04.631Z,2.97
2017-11-23T22:50:35.430Z,3.07
2017-11-23T22:53:06.219Z,3.17
2017-11-23T22:55:36.971Z,2.97
2017-11-23T22:58:07.744Z,3.00
2017-11-23T23:00:38.520Z,2.97
2017-11-23T23:03:09.289Z,3.13
2017-11-23T23:05:40.104Z,2.87
2017-11-23T23:08:10.860Z,3.03
2017-11-23T23:10:41.626Z,3.10
2017-11-23T23:13:12.377Z,3.00
2017-11-23T23:15:43.168Z,3.10
2017-11-23T23:18:13.901Z,2.90
2017-11-23T23:20:44.698Z,2.90
2017-11-23T23:23:15.467Z,3.00
2017-11-23T23:25:46.230Z,2.67
2017-11-23T23:28:17.000Z,2.90
2017-11-23T23:30:47.778Z,2.80
2017-11-23T23:33:18.546Z,3.00
2017-11-23T23:35:49.316Z,3.00
2017-11-23T23:38:20.082Z,3.00
2017-11-23T23:40:50.853Z,2.87
2017-11-23T23:43:21.638Z,2.80
2017-11-23T23:45:52.399Z,3.03
2017-11-23T23:48:23.174Z,2.93
2017-11-23T23:50:53.945Z,2.90
2017-11-23T23:53:24.726Z,3.00
2017-11-23T23:55:55.494Z,2.90
2017-11-23T23:58:26.302Z,2.90
